Time;durP1;ratioP1;P1;durP2;ratioP2;P2;SDS_P1;SDS_P2;PMS_P1;PMS_P2;Temp;Humidity;BMP_temperature;BMP_pressure;BME280_temperature;BME280_humidity;BME280_pressure;Samples;Min_cycle;Max_cycle;Signal;HPM_P1;HPM_P2
2021/03/25 00:02:13;;;;;;;11.30;8.70;;;;;;;;;;4891911;29;20552;-92
2021/03/25 00:04:40;;;;;;;18.10;8.93;;;3.00;99.90;;;;;;4896620;28;20547;-90
2021/03/25 00:07:07;;;;;;;17.27;9.50;;;3.00;99.90;;;;;;4893117;29;20565;-91
2021/03/25 00:09:38;;;;;;;19.87;10.17;;;3.00;99.90;;;;;;4896836;29;20445;-92
2021/03/25 00:12:06;;;;;;;15.87;9.17;;;3.00;99.90;;;;;;4896251;29;20489;-90
2021/03/25 00:14:32;;;;;;;14.30;9.00;;;3.00;99.90;;;;;;4893323;29;20453;-92
2021/03/25 00:16:59;;;;;;;14.20;9.40;;;3.00;99.90;;;;;;4896728;29;20454;-91
2021/03/25 00:19:25;;;;;;;12.53;9.13;;;2.90;99.90;;;;;;4925309;29;20489;-92
2021/03/25 00:21:53;;;;;;;17.77;9.17;;;2.90;99.90;;;;;;4955501;29;20497;-91
2021/03/25 00:24:20;;;;;;;13.23;9.90;;;2.90;99.90;;;;;;4951849;29;20608;-91
2021/03/25 00:26:54;;;;;;;14.57;8.87;;;2.90;99.90;;;;;;4955485;28;20459;-91
2021/03/25 00:29:20;;;;;;;12.57;9.13;;;2.90;99.90;;;;;;4954829;29;20790;-91
2021/03/25 00:31:46;;;;;;;16.00;9.67;;;2.90;99.90;;;;;;4938031;29;20946;-91
2021/03/25 00:34:14;;;;;;;11.70;8.77;;;2.80;99.90;;;;;;4954200;28;20450;-92
2021/03/25 00:36:40;;;;;;;19.17;9.80;;;2.80;99.90;;;;;;4955316;28;20451;-93
2021/03/25 00:39:10;;;;;;;13.57;10.03;;;2.80;99.90;;;;;;4949161;29;20435;-92
2021/03/25 00:41:36;;;;;;;17.87;9.70;;;2.80;99.90;;;;;;4955268;28;20515;-91
2021/03/25 00:44:04;;;;;;;21.70;9.30;;;2.70;99.90;;;;;;5003832;28;20493;-91
2021/03/25 00:46:30;;;;;;;14.80;9.63;;;2.70;99.90;;;;;;4951194;29;20450;-91
2021/03/25 00:48:57;;;;;;;14.80;8.80;;;2.70;99.90;;;;;;4955405;28;20439;-92
2021/03/25 00:51:23;;;;;;;13.27;9.57;;;2.70;99.90;;;;;;4953714;29;20470;-91
2021/03/25 00:53:49;;;;;;;15.63;10.40;;;2.70;99.90;;;;;;4955320;28;20435;-92
2021/03/25 00:56:16;;;;;;;14.93;9.60;;;2.70;99.90;;;;;;4947765;29;21033;-91
2021/03/25 00:58:43;;;;;;;13.53;9.50;;;2.60;99.90;;;;;;4952895;29;20439;-91
2021/03/25 01:01:09;;;;;;;16.13;10.23;;;2.60;99.90;;;;;;4953451;29;20508;-91
2021/03/25 01:03:35;;;;;;;18.47;9.90;;;2.70;99.90;;;;;;4957958;28;20469;-91
2021/03/25 01:06:02;;;;;;;15.83;8.93;;;2.60;99.90;;;;;;4952001;29;20475;-91
2021/03/25 01:08:28;;;;;;;14.50;9.00;;;2.60;99.90;;;;;;4955174;28;20447;-91
2021/03/25 01:10:59;;;;;;;15.33;9.37;;;2.60;99.90;;;;;;4954653;28;20486;-90
2021/03/25 01:13:29;;;;;;;12.07;8.43;;;2.50;99.90;;;;;;4953686;29;20485;-92
2021/03/25 01:15:55;;;;;;;19.77;8.80;;;2.50;99.90;;;;;;4954811;28;20451;-91
2021/03/25 01:18:22;;;;;;;14.60;9.37;;;2.40;99.90;;;;;;4946140;29;20995;-93
2021/03/25 01:20:48;;;;;;;16.90;9.60;;;2.40;99.90;;;;;;4954378;29;20483;-92
2021/03/25 01:23:16;;;;;;;17.77;10.10;;;2.40;99.90;;;;;;4954658;29;20439;-90
2021/03/25 01:25:42;;;;;;;15.40;10.40;;;2.40;99.90;;;;;;4954094;29;20475;-92
2021/03/25 01:28:11;;;;;;;13.00;9.60;;;2.40;99.90;;;;;;4953681;28;20794;-91
2021/03/25 01:30:39;;;;;;;17.23;9.27;;;2.40;99.90;;;;;;4954724;28;20455;-91
2021/03/25 01:33:07;;;;;;;22.33;10.60;;;2.40;99.90;;;;;;4954569;28;20442;-91
2021/03/25 01:35:35;;;;;;;15.60;9.30;;;2.50;99.90;;;;;;4954678;28;20440;-91
2021/03/25 01:38:03;;;;;;;13.57;9.20;;;2.50;99.90;;;;;;4951652;29;20984;-92
2021/03/25 01:40:31;;;;;;;16.37;9.67;;;2.70;99.90;;;;;;4949701;29;20470;-91
2021/03/25 01:43:12;;;;;;;22.70;10.80;;;2.80;99.90;;;;;;4949711;28;20439;-93
2021/03/25 01:45:47;;;;;;;15.20;9.37;;;2.90;99.90;;;;;;4953696;28;20491;-91
2021/03/25 01:48:16;;;;;;;15.83;9.30;;;3.00;99.90;;;;;;4953994;29;20491;-91
2021/03/25 01:50:43;;;;;;;15.30;9.73;;;3.00;99.90;;;;;;4914009;29;20457;-93
2021/03/25 01:53:42;;;;;;;16.30;9.77;;;3.00;99.90;;;;;;4914064;29;20460;-91
2021/03/25 01:56:18;;;;;;;15.87;10.03;;;3.10;99.90;;;;;;4914354;29;20461;-92
2021/03/25 01:59:08;;;;;;;14.93;9.13;;;3.20;99.90;;;;;;4909716;29;20979;-91
2021/03/25 02:01:41;;;;;;;13.60;9.10;;;3.30;99.90;;;;;;4893927;29;20463;-91
2021/03/25 02:04:19;;;;;;;17.80;10.13;;;3.30;99.90;;;;;;4913906;29;20484;-90
2021/03/25 02:06:56;;;;;;;14.90;9.47;;;3.40;99.90;;;;;;4913954;29;20523;-90
2021/03/25 02:09:34;;;;;;;14.80;9.13;;;3.50;99.90;;;;;;4940910;29;20561;-91
2021/03/25 02:12:09;;;;;;;14.07;9.23;;;3.50;99.90;;;;;;4951662;29;20589;-91
2021/03/25 02:14:44;;;;;;;12.20;8.70;;;3.50;99.90;;;;;;4952615;29;20541;-91
2021/03/25 02:17:15;;;;;;;12.70;9.40;;;3.60;99.90;;;;;;4949440;29;20439;-93
2021/03/25 02:20:14;;;;;;;11.57;8.53;;;3.60;99.90;;;;;;4953275;29;20482;-91
2021/03/25 02:23:24;;;;;;;10.20;7.77;;;3.60;99.90;;;;;;4951846;29;20456;-90
2021/03/25 02:25:55;;;;;;;10.20;6.87;;;3.70;99.90;;;;;;4950752;29;20505;-92
2021/03/25 02:28:35;;;;;;;10.57;7.07;;;4.10;99.90;;;;;;4912471;29;20449;-92
2021/03/25 02:31:09;;;;;;;7.07;6.00;;;4.10;99.90;;;;;;4910049;29;20952;-91
2021/03/25 02:33:37;;;;;;;8.00;6.67;;;4.40;99.90;;;;;;4910995;29;20499;-91
2021/03/25 02:36:07;;;;;;;12.33;7.93;;;4.50;99.90;;;;;;4908707;29;20453;-92
2021/03/25 02:38:39;;;;;;;9.57;6.97;;;4.50;99.90;;;;;;4913610;29;20445;-92
2021/03/25 02:41:08;;;;;;;7.83;7.00;;;4.40;99.90;;;;;;4915510;28;20468;-91
2021/03/25 02:43:39;;;;;;;7.00;5.50;;;4.40;99.90;;;;;;4912333;29;20488;-90
2021/03/25 02:46:10;;;;;;;8.37;5.80;;;4.60;99.90;;;;;;4922322;29;20620;-91
2021/03/25 02:48:41;;;;;;;11.23;6.27;;;4.50;99.90;;;;;;4950698;29;20460;-92
2021/03/25 02:51:16;;;;;;;6.47;5.40;;;4.60;99.90;;;;;;4952280;29;20809;-91
2021/03/25 02:53:44;;;;;;;9.60;6.40;;;4.60;99.90;;;;;;4953677;28;20453;-90
2021/03/25 02:56:15;;;;;;;8.70;5.63;;;4.60;99.90;;;;;;4952820;29;20506;-91
2021/03/25 02:58:44;;;;;;;9.20;5.83;;;4.60;99.90;;;;;;4950558;29;20497;-92
2021/03/25 03:01:14;;;;;;;8.93;6.30;;;4.60;99.90;;;;;;4952075;28;20446;-91
2021/03/25 03:03:43;;;;;;;10.77;6.13;;;4.50;99.90;;;;;;4951738;29;20501;-90
2021/03/25 03:06:24;;;;;;;8.67;6.33;;;4.30;99.90;;;;;;4953113;28;20494;-93
2021/03/25 03:08:52;;;;;;;8.90;6.80;;;4.20;99.90;;;;;;4953076;28;20455;-92
2021/03/25 03:11:22;;;;;;;7.93;6.27;;;4.10;99.90;;;;;;4952906;29;20851;-92
2021/03/25 03:13:54;;;;;;;8.23;6.50;;;4.00;99.90;;;;;;4951994;29;20946;-91
2021/03/25 03:16:26;;;;;;;8.00;6.33;;;4.10;99.90;;;;;;4952651;29;20823;-90
2021/03/25 03:18:56;;;;;;;7.93;5.70;;;4.10;99.90;;;;;;4954656;28;20477;-91
2021/03/25 03:21:29;;;;;;;10.07;6.73;;;4.30;99.90;;;;;;4952449;29;21028;-92
2021/03/25 03:23:56;;;;;;;9.03;5.93;;;4.40;99.90;;;;;;4953238;28;20506;-90
2021/03/25 03:26:26;;;;;;;9.43;7.07;;;4.50;99.90;;;;;;4948988;29;20490;-90
2021/03/25 03:29:03;;;;;;;6.77;5.37;;;4.50;99.90;;;;;;4951919;28;20485;-93
2021/03/25 03:31:38;;;;;;;11.20;7.83;;;4.40;99.90;;;;;;4953232;28;20440;-91
2021/03/25 03:34:09;;;;;;;11.37;6.90;;;4.40;99.90;;;;;;4950003;29;20446;-91
2021/03/25 03:36:38;;;;;;;9.60;6.90;;;4.40;99.90;;;;;;4944548;29;20465;-93
2021/03/25 03:39:08;;;;;;;14.60;7.30;;;4.30;99.90;;;;;;4953143;29;20462;-90
2021/03/25 03:41:40;;;;;;;13.10;7.80;;;4.40;99.90;;;;;;4943506;29;20489;-92
2021/03/25 03:44:11;;;;;;;10.93;7.33;;;4.40;99.90;;;;;;4952186;28;20448;-91
2021/03/25 03:46:42;;;;;;;10.60;7.20;;;4.40;99.90;;;;;;4951770;29;20491;-90
2021/03/25 03:49:11;;;;;;;10.40;6.73;;;4.30;99.90;;;;;;4951473;28;20447;-91
2021/03/25 03:51:41;;;;;;;9.73;6.30;;;4.20;99.90;;;;;;4952492;28;20447;-91
2021/03/25 03:54:08;;;;;;;7.83;6.50;;;4.10;99.90;;;;;;4952144;29;20775;-91
2021/03/25 03:56:41;;;;;;;10.90;6.90;;;4.10;99.90;;;;;;4952366;28;20455;-90
2021/03/25 03:59:15;;;;;;;9.13;6.60;;;3.90;99.90;;;;;;4952271;28;20443;-92
2021/03/25 04:01:48;;;;;;;7.90;6.40;;;3.80;99.90;;;;;;4952427;28;20455;-94
2021/03/25 04:04:21;;;;;;;9.97;7.37;;;3.80;99.90;;;;;;4952702;28;20501;-92
2021/03/25 04:06:55;;;;;;;9.80;6.50;;;3.70;99.90;;;;;;4949456;29;20447;-92
2021/03/25 04:09:28;;;;;;;10.60;6.40;;;3.70;99.90;;;;;;4951269;29;20483;-90
2021/03/25 04:11:58;;;;;;;8.37;6.80;;;3.50;99.90;;;;;;4955790;28;20458;-90
2021/03/25 04:14:26;;;;;;;9.70;6.43;;;3.60;99.90;;;;;;4955097;28;20443;-92
2021/03/25 04:16:57;;;;;;;10.80;6.40;;;3.50;99.90;;;;;;4954095;29;20447;-90
2021/03/25 04:19:31;;;;;;;10.13;7.23;;;3.40;99.90;;;;;;4955205;29;20839;-94
2021/03/25 04:22:02;;;;;;;11.37;6.57;;;3.40;99.90;;;;;;4954085;29;20431;-91
2021/03/25 04:24:30;;;;;;;7.60;5.93;;;3.30;99.90;;;;;;4954469;28;20446;-90
2021/03/25 04:27:05;;;;;;;9.70;6.37;;;3.20;99.90;;;;;;4954077;29;20815;-91
2021/03/25 04:29:35;;;;;;;8.70;6.00;;;3.10;99.90;;;;;;4953614;29;20457;-90
2021/03/25 04:32:03;;;;;;;9.93;6.70;;;3.00;99.90;;;;;;4948841;29;20439;-92
2021/03/25 04:34:30;;;;;;;8.80;6.30;;;2.90;99.90;;;;;;4952281;29;20456;-90
2021/03/25 04:36:57;;;;;;;8.63;6.60;;;2.80;99.90;;;;;;4950147;29;20454;-90
2021/03/25 04:39:24;;;;;;;8.80;6.87;;;2.80;99.90;;;;;;4954363;28;20458;-91
2021/03/25 04:41:52;;;;;;;9.73;5.57;;;2.70;99.90;;;;;;4954430;28;20440;-92
2021/03/25 04:44:31;;;;;;;8.20;6.27;;;2.70;99.90;;;;;;4952015;29;20534;-91
2021/03/25 04:47:05;;;;;;;12.37;6.30;;;2.60;99.90;;;;;;4951610;29;20462;-92
2021/03/25 04:49:35;;;;;;;8.80;6.57;;;2.50;99.90;;;;;;4954166;28;20456;-92
2021/03/25 04:52:05;;;;;;;9.10;6.57;;;2.50;99.90;;;;;;4951952;29;20448;-93
2021/03/25 04:54:36;;;;;;;9.03;6.97;;;2.40;99.90;;;;;;4954552;28;20447;-92
2021/03/25 04:57:08;;;;;;;8.93;6.60;;;2.40;99.90;;;;;;4953025;29;20805;-91
2021/03/25 04:59:37;;;;;;;10.67;6.17;;;2.40;99.90;;;;;;4953932;28;20573;-90
2021/03/25 05:02:06;;;;;;;10.03;7.50;;;2.30;99.90;;;;;;4952617;29;20439;-92
2021/03/25 05:04:36;;;;;;;9.27;6.10;;;2.30;99.90;;;;;;4990846;28;20481;-94
2021/03/25 05:07:03;;;;;;;10.97;7.83;;;2.30;99.90;;;;;;4993826;28;20461;-93
2021/03/25 05:09:30;;;;;;;12.23;7.47;;;2.30;99.90;;;;;;4958948;28;20960;-90
2021/03/25 05:11:58;;;;;;;12.20;7.73;;;2.40;99.90;;;;;;4990870;28;20460;-91
2021/03/25 05:14:27;;;;;;;10.80;6.33;;;2.30;99.90;;;;;;4993649;28;20449;-91
2021/03/25 05:17:05;;;;;;;10.77;6.30;;;2.50;99.90;;;;;;4991072;28;21015;-91
2021/03/25 05:19:48;;;;;;;8.60;6.20;;;2.50;99.90;;;;;;4970493;28;593224;-91
2021/03/25 05:22:21;;;;;;;10.47;6.33;;;2.50;99.90;;;;;;4992073;28;20434;-90
2021/03/25 05:24:53;;;;;;;11.27;6.33;;;2.60;99.90;;;;;;4994419;28;20485;-90
2021/03/25 05:27:26;;;;;;;8.40;5.30;;;2.60;99.90;;;;;;4993671;28;20437;-90
2021/03/25 05:29:55;;;;;;;8.13;6.10;;;2.70;99.90;;;;;;4956609;28;20921;-93
2021/03/25 05:32:25;;;;;;;7.70;5.20;;;2.70;99.90;;;;;;4954471;28;20540;-92
2021/03/25 05:34:54;;;;;;;7.30;5.10;;;2.80;99.90;;;;;;4953375;29;20477;-92
2021/03/25 05:37:22;;;;;;;6.10;4.97;;;2.90;99.90;;;;;;4954563;28;20443;-91
2021/03/25 05:39:48;;;;;;;6.97;4.80;;;3.00;99.90;;;;;;4954510;28;20467;-90
2021/03/25 05:42:23;;;;;;;7.03;5.43;;;3.00;99.90;;;;;;4953883;28;20486;-93
2021/03/25 05:45:25;;;;;;;6.80;5.07;;;3.00;99.90;;;;;;4954264;29;20474;-91
2021/03/25 05:48:23;;;;;;;6.77;5.37;;;3.10;99.90;;;;;;4954114;28;20540;-92
2021/03/25 05:50:55;;;;;;;6.23;5.30;;;3.30;99.90;;;;;;4952656;29;20533;-90
2021/03/25 05:53:35;;;;;;;4.73;4.20;;;3.40;99.90;;;;;;4953858;29;20558;-90
2021/03/25 05:56:26;;;;;;;8.13;4.53;;;3.50;99.90;;;;;;4949861;28;20950;-92
2021/03/25 05:58:56;;;;;;;15.40;8.70;;;3.60;99.90;;;;;;4953593;28;20519;-92
2021/03/25 06:01:46;;;;;;;7.97;5.90;;;3.90;99.90;;;;;;4954023;29;20493;-92
2021/03/25 06:04:17;;;;;;;6.70;5.47;;;4.10;99.90;;;;;;4950082;29;20456;-90
2021/03/25 06:07:16;;;;;;;7.90;4.40;;;4.40;99.90;;;;;;4947711;29;20492;-91
2021/03/25 06:09:57;;;;;;;9.17;6.00;;;4.70;99.90;;;;;;4952673;29;20483;-90
2021/03/25 06:12:33;;;;;;;7.17;4.83;;;5.10;99.90;;;;;;4956501;29;20450;-91
2021/03/25 06:15:12;;;;;;;6.93;5.20;;;5.30;99.90;;;;;;4954510;29;20453;-89
2021/03/25 06:17:59;;;;;;;6.93;5.03;;;5.60;99.90;;;;;;4955732;28;20459;-91
2021/03/25 06:20:33;;;;;;;6.53;4.50;;;5.80;99.90;;;;;;4956113;28;20487;-92
2021/03/25 06:23:32;;;;;;;6.17;3.83;;;6.30;99.90;;;;;;4953060;29;20438;-92
2021/03/25 06:26:13;;;;;;;6.23;4.23;;;6.70;99.90;;;;;;4955613;28;20491;-90
2021/03/25 06:28:43;;;;;;;8.50;4.37;;;7.20;99.90;;;;;;4949922;28;20462;-90
2021/03/25 06:31:19;;;;;;;6.70;4.43;;;7.10;99.90;;;;;;4955108;29;20451;-90
2021/03/25 06:33:52;;;;;;;7.03;4.43;;;7.30;99.90;;;;;;4953982;28;20455;-90
2021/03/25 06:36:21;;;;;;;6.73;4.40;;;7.60;99.90;;;;;;4953483;28;20501;-91
2021/03/25 06:38:51;;;;;;;5.63;4.03;;;7.90;99.90;;;;;;4953501;29;20467;-91
2021/03/25 06:41:23;;;;;;;8.63;4.27;;;8.10;99.90;;;;;;4953634;28;20451;-91
2021/03/25 06:43:54;;;;;;;8.03;4.73;;;8.40;99.90;;;;;;4952719;28;20942;-91
2021/03/25 06:46:27;;;;;;;14.10;4.67;;;8.50;99.90;;;;;;4953999;29;20491;-91
2021/03/25 06:48:56;;;;;;;6.07;4.57;;;8.60;99.90;;;;;;4955326;29;20459;-91
2021/03/25 06:51:26;;;;;;;6.70;4.23;;;8.70;99.90;;;;;;4953949;29;20510;-92
2021/03/25 06:53:58;;;;;;;8.93;4.40;;;9.20;99.90;;;;;;4954698;29;20447;-92
2021/03/25 06:56:35;;;;;;;11.80;4.70;;;9.80;99.90;;;;;;4957600;28;20454;-91
2021/03/25 06:59:03;;;;;;;9.50;3.93;;;10.00;99.80;;;;;;4954464;29;20460;-93
2021/03/25 07:01:35;;;;;;;10.20;4.10;;;10.20;99.00;;;;;;4954694;28;20812;-90
2021/03/25 07:04:14;;;;;;;6.90;4.27;;;10.50;98.00;;;;;;4955925;28;20458;-94
2021/03/25 07:06:41;;;;;;;7.93;4.60;;;10.40;98.10;;;;;;4949030;28;20519;-91
2021/03/25 07:09:08;;;;;;;11.30;4.50;;;10.70;97.80;;;;;;4948338;28;20533;-92
2021/03/25 07:11:37;;;;;;;10.80;4.67;;;11.00;96.80;;;;;;4943409;28;20483;-90
2021/03/25 07:14:08;;;;;;;4.20;3.67;;;11.20;96.30;;;;;;4902710;29;20487;-92
2021/03/25 07:16:39;;;;;;;5.60;3.80;;;11.60;95.60;;;;;;4954319;28;20450;-93
2021/03/25 07:19:11;;;;;;;4.77;3.73;;;11.90;94.90;;;;;;4963715;28;20455;-91
2021/03/25 07:21:39;;;;;;;6.50;4.00;;;11.90;95.00;;;;;;4953799;28;20863;-92
2021/03/25 07:24:09;;;;;;;7.40;4.30;;;12.10;94.30;;;;;;4954833;29;20451;-95
2021/03/25 07:26:40;;;;;;;9.33;4.00;;;12.40;93.90;;;;;;4928693;28;20489;-95
2021/03/25 07:29:25;;;;;;;10.07;4.00;;;13.20;92.20;;;;;;4966674;28;20546;-92
2021/03/25 07:31:56;;;;;;;5.90;3.63;;;13.10;92.50;;;;;;4950132;28;20459;-93
2021/03/25 07:34:37;;;;;;;7.70;3.77;;;13.00;92.00;;;;;;4941557;29;20800;-91
2021/03/25 07:37:06;;;;;;;5.50;3.67;;;13.20;91.90;;;;;;4946301;28;20442;-91
2021/03/25 07:39:36;;;;;;;6.50;3.50;;;13.60;90.50;;;;;;4953007;28;20467;-89
2021/03/25 07:42:05;;;;;;;5.40;3.60;;;13.70;90.80;;;;;;4954674;28;20455;-92
2021/03/25 07:44:40;;;;;;;10.87;4.30;;;14.00;90.30;;;;;;4942915;29;20868;-89
2021/03/25 07:47:25;;;;;;;14.53;3.70;;;14.00;91.30;;;;;;4958510;28;20504;-93
2021/03/25 07:49:51;;;;;;;6.10;3.80;;;13.50;91.60;;;;;;4952087;28;20568;-92
2021/03/25 07:52:29;;;;;;;7.50;3.87;;;13.60;90.80;;;;;;4951588;29;20460;-91
2021/03/25 07:55:12;;;;;;;3.93;3.13;;;14.20;90.40;;;;;;4944546;29;20470;-91
2021/03/25 07:57:43;;;;;;;4.13;3.10;;;13.60;87.20;;;;;;4933685;29;20448;-94
2021/03/25 08:00:18;;;;;;;4.10;3.10;;;13.90;88.40;;;;;;4946342;29;20465;-94
2021/03/25 08:02:45;;;;;;;4.93;3.10;;;14.40;86.10;;;;;;4960193;28;20527;-94
2021/03/25 08:05:28;;;;;;;6.03;3.27;;;14.80;87.00;;;;;;4979472;28;20493;-94
2021/03/25 08:07:57;;;;;;;5.10;3.40;;;14.70;83.80;;;;;;4940403;29;20472;-91
2021/03/25 08:10:36;;;;;;;3.37;3.07;;;14.70;83.40;;;;;;4925194;28;20478;-93
2021/03/25 08:13:13;;;;;;;4.70;3.40;;;15.00;83.20;;;;;;4956735;29;20439;-90
2021/03/25 08:15:43;;;;;;;5.10;3.37;;;15.30;82.20;;;;;;4959121;29;20454;-95
2021/03/25 08:18:24;;;;;;;4.60;3.07;;;15.50;86.40;;;;;;5057024;23;20493;-92
2021/03/25 08:21:00;;;;;;;5.40;2.77;;;15.50;83.30;;;;;;5086824;22;20493;-90
2021/03/25 08:24:05;;;;;;;6.70;3.30;;;15.20;80.50;;;;;;5086464;28;20444;-92
2021/03/25 08:26:41;;;;;;;4.10;3.27;;;15.50;82.10;;;;;;5045227;28;20852;-93
2021/03/25 08:29:19;;;;;;;3.30;3.00;;;15.90;81.50;;;;;;5079880;28;20844;-92
2021/03/25 08:31:56;;;;;;;3.80;2.97;;;16.20;79.80;;;;;;5075304;28;20445;-93
2021/03/25 08:34:36;;;;;;;5.40;3.17;;;15.40;94.60;;;;;;5072392;28;20943;-94
2021/03/25 08:37:34;;;;;;;5.13;3.60;;;15.30;80.20;;;;;;5078563;28;20445;-92
2021/03/25 08:40:06;;;;;;;3.23;2.50;;;15.70;79.10;;;;;;5075156;28;20453;-93
2021/03/25 08:42:38;;;;;;;5.60;3.53;;;15.60;79.00;;;;;;5076426;28;20575;-93
2021/03/25 08:45:22;;;;;;;8.03;4.20;;;15.90;78.70;;;;;;5076879;28;20483;-93
2021/03/25 08:48:02;;;;;;;5.20;3.60;;;15.70;77.10;;;;;;5081481;28;20441;-93
2021/03/25 08:51:02;;;;;;;3.80;3.30;;;15.80;77.60;;;;;;5074057;28;20437;-93
2021/03/25 08:53:41;;;;;;;3.60;3.10;;;16.10;76.90;;;;;;5069884;28;20492;-93
2021/03/25 08:56:25;;;;;;;4.40;3.03;;;16.30;78.50;;;;;;5075370;28;20454;-92
2021/03/25 08:58:56;;;;;;;4.37;3.43;;;16.90;76.90;;;;;;5076167;28;20461;-94
2021/03/25 09:01:31;;;;;;;6.93;3.83;;;16.80;77.40;;;;;;5072967;28;20499;-89
2021/03/25 09:04:00;;;;;;;4.17;3.10;;;16.20;75.80;;;;;;5072437;28;20450;-89
2021/03/25 09:06:30;;;;;;;4.00;3.60;;;16.70;75.20;;;;;;5061617;28;20486;-90
2021/03/25 09:09:16;;;;;;;4.30;3.13;;;16.80;75.80;;;;;;5087973;28;20456;-92
2021/03/25 09:11:43;;;;;;;4.80;3.57;;;17.10;74.20;;;;;;5083021;28;20458;-91
2021/03/25 09:14:20;;;;;;;4.43;3.30;;;17.80;71.10;;;;;;5081405;28;20442;-92
2021/03/25 09:16:52;;;;;;;4.90;3.63;;;17.80;69.30;;;;;;5080992;28;20470;-92
2021/03/25 09:19:21;;;;;;;3.70;3.30;;;18.20;71.60;;;;;;5085934;28;20537;-90
2021/03/25 09:21:49;;;;;;;4.70;3.73;;;18.60;69.60;;;;;;5118341;28;20475;-90
2021/03/25 09:24:16;;;;;;;5.07;4.13;;;18.30;70.10;;;;;;5117968;28;20448;-90
2021/03/25 09:27:00;;;;;;;4.80;3.67;;;18.10;70.20;;;;;;5119596;28;21000;-91
2021/03/25 09:29:32;;;;;;;5.60;3.80;;;19.00;71.10;;;;;;5112951;28;20450;-91
2021/03/25 09:32:32;;;;;;;8.63;4.50;;;18.40;67.40;;;;;;5075426;28;20449;-92
2021/03/25 09:35:01;;;;;;;5.50;3.67;;;19.00;67.20;;;;;;5085121;28;20445;-91
2021/03/25 09:37:32;;;;;;;7.50;4.30;;;18.90;67.60;;;;;;5084781;28;20483;-90
2021/03/25 09:40:47;;;;;;;5.37;3.83;;;18.60;68.60;;;;;;5101597;28;20453;-91
2021/03/25 09:43:42;;;;;;;6.03;3.60;;;19.10;66.40;;;;;;5094663;28;20446;-92
2021/03/25 09:46:33;;;;;;;6.13;3.63;;;19.40;65.40;;;;;;5092090;28;20979;-95
2021/03/25 09:49:28;;;;;;;5.07;3.90;;;20.00;64.90;;;;;;5102320;28;20491;-95
2021/03/25 09:55:36;;;;;;;6.70;3.80;;;20.30;64.70;;;;;;5102380;28;20502;-95
2021/03/25 09:58:04;;;;;;;5.97;3.83;;;20.20;62.30;;;;;;5102416;28;20455;-95
2021/03/25 10:00:51;;;;;;;4.90;3.93;;;20.20;63.10;;;;;;5097335;28;20490;-95
2021/03/25 10:03:20;;;;;;;4.77;3.77;;;20.10;62.40;;;;;;5096114;28;20449;-93
2021/03/25 10:05:47;;;;;;;6.20;3.80;;;19.10;63.30;;;;;;5097972;28;20476;-95
2021/03/25 10:08:50;;;;;;;8.83;4.13;;;19.70;64.30;;;;;;5099169;28;20518;-95
2021/03/25 10:11:54;;;;;;;7.40;3.77;;;19.70;61.60;;;;;;5097572;28;20445;-94
2021/03/25 10:14:42;;;;;;;4.87;3.83;;;19.80;61.80;;;;;;5095701;28;20457;-95
2021/03/25 10:17:09;;;;;;;6.83;4.67;;;20.30;62.50;;;;;;5100160;28;20441;-93
2021/03/25 10:19:46;;;;;;;6.53;3.70;;;20.30;61.30;;;;;;5101967;28;20509;-95
2021/03/25 10:22:21;;;;;;;10.33;9.03;;;21.00;62.50;;;;;;5055320;28;20545;-94
2021/03/25 10:25:07;;;;;;;9.30;5.60;;;21.50;61.10;;;;;;5051399;28;20503;-94
2021/03/25 10:27:41;;;;;;;9.73;5.40;;;21.40;61.50;;;;;;5052315;28;20460;-94
2021/03/25 10:30:26;;;;;;;5.90;5.30;;;21.50;61.50;;;;;;5059886;28;20439;-95
2021/03/25 10:32:53;;;;;;;13.77;6.20;;;20.70;61.60;;;;;;5056688;28;20480;-95
2021/03/25 10:35:25;;;;;;;14.40;6.90;;;20.90;64.80;;;;;;5052359;28;20492;-95
2021/03/25 10:37:56;;;;;;;8.70;5.50;;;21.00;65.00;;;;;;5054540;28;20451;-93
2021/03/25 10:40:29;;;;;;;6.73;5.47;;;21.10;64.40;;;;;;5061817;28;21017;-93
2021/03/25 10:43:00;;;;;;;9.60;5.17;;;20.60;62.10;;;;;;5081087;28;20453;-95
2021/03/25 10:45:34;;;;;;;9.37;5.70;;;20.80;63.30;;;;;;5088819;28;20978;-95
2021/03/25 10:48:05;;;;;;;5.53;4.93;;;21.50;64.10;;;;;;5081591;28;20555;-94
2021/03/25 10:50:40;;;;;;;7.77;5.53;;;21.50;61.70;;;;;;5082839;28;20449;-93
2021/03/25 10:53:13;;;;;;;6.80;5.80;;;21.90;61.20;;;;;;5078661;28;20461;-94
2021/03/25 10:55:46;;;;;;;9.27;6.03;;;21.10;58.60;;;;;;5087411;28;20456;-95
2021/03/25 10:58:23;;;;;;;6.90;5.70;;;20.70;61.00;;;;;;5104282;28;20449;-95
2021/03/25 11:03:41;;;;;;;10.00;6.40;;;;;;;;;;5105457;28;20509;-95
2021/03/25 11:06:11;;;;;;;7.40;5.77;;;;;;;;;;5098290;28;20477;-96
2021/03/25 11:08:41;;;;;;;9.40;6.17;;;20.10;64.60;;;;;;5098501;28;20524;-96
2021/03/25 11:11:18;;;;;;;8.63;6.23;;;20.90;63.80;;;;;;5101179;28;20461;-96
2021/03/25 11:13:56;;;;;;;8.90;6.10;;;20.60;60.40;;;;;;5079551;28;20795;-95
2021/03/25 11:16:26;;;;;;;6.40;5.70;;;20.10;60.60;;;;;;5090327;28;21010;-96
2021/03/25 11:18:57;;;;;;;7.10;5.83;;;19.20;62.70;;;;;;5076609;28;20444;-94
2021/03/25 11:24:18;;;;;;;8.40;6.03;;;18.60;62.00;;;;;;5034156;23;20569;-91
2021/03/25 11:26:45;;;;;;;10.57;6.13;;;18.70;63.40;;;;;;5054363;28;20458;-96
2021/03/25 11:29:16;;;;;;;6.97;5.90;;;17.50;72.10;;;;;;5052020;28;20445;-94
2021/03/25 11:31:44;;;;;;;13.50;7.13;;;17.40;65.90;;;;;;5056887;28;20461;-94
2021/03/25 11:34:31;;;;;;;9.33;6.20;;;17.40;66.80;;;;;;5052259;28;20460;-94
2021/03/25 11:37:00;;;;;;;7.00;6.10;;;17.00;67.90;;;;;;5050475;28;21010;-95
2021/03/25 11:39:29;;;;;;;8.70;5.97;;;17.50;68.00;;;;;;5033181;28;20470;-95
2021/03/25 11:41:59;;;;;;;10.00;6.77;;;19.00;63.90;;;;;;5034911;28;20544;-94
2021/03/25 11:44:46;;;;;;;18.23;6.57;;;19.00;64.90;;;;;;5034983;28;20447;-89
2021/03/25 11:47:41;;;;;;;7.50;5.90;;;18.90;64.90;;;;;;5039175;28;20463;-91
2021/03/25 11:50:29;;;;;;;14.00;7.37;;;18.20;66.70;;;;;;5044476;28;20462;-93
2021/03/25 11:52:59;;;;;;;9.20;6.83;;;17.40;66.50;;;;;;5057479;28;20447;-94
2021/03/25 11:55:29;;;;;;;9.10;6.80;;;17.40;66.70;;;;;;5060232;28;20493;-94
2021/03/25 11:58:05;;;;;;;10.77;6.40;;;17.30;73.60;;;;;;5054833;28;20451;-94
2021/03/25 12:00:34;;;;;;;10.70;6.03;;;17.70;67.60;;;;;;5042108;28;20548;-93
2021/03/25 12:03:15;;;;;;;12.30;5.30;;;17.90;67.40;;;;;;5024128;28;20447;-93
2021/03/25 12:05:46;;;;;;;7.87;5.70;;;18.80;65.00;;;;;;5026136;28;20452;-96
2021/03/25 12:08:32;;;;;;;8.33;6.27;;;18.10;65.00;;;;;;5034381;28;20455;-94
2021/03/25 12:11:03;;;;;;;10.03;5.87;;;17.50;67.50;;;;;;5035089;28;20448;-93
2021/03/25 12:13:30;;;;;;;10.73;6.30;;;17.30;67.80;;;;;;4994425;28;20458;-92
2021/03/25 12:16:00;;;;;;;7.10;5.50;;;17.30;67.30;;;;;;5029962;28;20490;-91
2021/03/25 12:18:30;;;;;;;7.43;5.60;;;17.50;69.30;;;;;;5025044;28;20444;-91
2021/03/25 12:20:58;;;;;;;11.80;5.93;;;17.80;68.20;;;;;;5028472;28;20447;-92
2021/03/25 12:23:29;;;;;;;8.30;6.57;;;18.80;68.50;;;;;;5033076;28;20966;-93
2021/03/25 12:25:58;;;;;;;8.30;5.70;;;19.60;64.40;;;;;;5033304;28;20554;-91
2021/03/25 12:28:26;;;;;;;9.00;5.53;;;20.20;64.80;;;;;;5029103;28;20447;-91
2021/03/25 12:30:55;;;;;;;10.53;6.77;;;20.10;62.00;;;;;;5028686;28;20451;-92
2021/03/25 12:33:24;;;;;;;9.30;6.07;;;19.90;62.10;;;;;;4994455;28;20460;-91
2021/03/25 12:35:51;;;;;;;12.50;7.17;;;19.70;61.00;;;;;;4995275;28;20488;-88
2021/03/25 12:38:18;;;;;;;8.57;6.83;;;;;;;;;;4994882;28;20948;-91
2021/03/25 12:40:45;;;;;;;13.13;7.23;;;19.30;61.70;;;;;;4997067;28;20495;-94
2021/03/25 12:43:15;;;;;;;12.63;6.30;;;19.00;63.60;;;;;;4996920;28;20453;-93
2021/03/25 12:45:43;;;;;;;8.90;6.60;;;18.80;65.30;;;;;;4992658;28;20792;-94
2021/03/25 12:48:11;;;;;;;8.50;6.17;;;18.80;64.30;;;;;;5001859;28;20519;-94
2021/03/25 12:50:37;;;;;;;11.93;6.67;;;18.30;66.50;;;;;;4965128;28;21010;-92
2021/03/25 12:53:04;;;;;;;8.57;6.57;;;18.20;68.70;;;;;;5026046;28;20452;-93
2021/03/25 12:55:31;;;;;;;8.70;6.83;;;18.00;70.00;;;;;;4927082;29;20899;-92
2021/03/25 12:57:58;;;;;;;8.97;6.40;;;17.60;70.10;;;;;;4932271;29;20456;-91
2021/03/25 13:00:29;;;;;;;10.80;7.33;;;17.50;73.10;;;;;;4928116;29;21030;-90
2021/03/25 13:02:56;;;;;;;8.43;6.50;;;17.40;72.40;;;;;;4928352;29;20495;-92
2021/03/25 13:05:24;;;;;;;12.60;7.67;;;17.30;73.90;;;;;;4935937;29;20460;-90
2021/03/25 13:07:51;;;;;;;11.83;7.83;;;17.30;73.60;;;;;;4925796;29;20464;-89
2021/03/25 13:10:19;;;;;;;9.43;6.60;;;17.50;74.30;;;;;;4937946;29;20440;-91
2021/03/25 13:12:46;;;;;;;10.27;6.37;;;17.80;74.80;;;;;;4945094;28;20784;-90
2021/03/25 13:15:13;;;;;;;9.57;6.37;;;18.00;75.00;;;;;;5015666;28;20441;-92
2021/03/25 13:17:40;;;;;;;10.90;6.60;;;18.30;74.00;;;;;;5009257;28;20786;-93
2021/03/25 13:20:09;;;;;;;14.63;7.03;;;17.80;73.30;;;;;;5015041;28;20449;-91
2021/03/25 13:22:36;;;;;;;10.57;6.63;;;17.60;73.80;;;;;;4954564;29;20447;-89
2021/03/25 13:25:04;;;;;;;12.30;7.40;;;17.40;75.70;;;;;;4954910;29;20574;-90
2021/03/25 13:27:30;;;;;;;9.20;7.07;;;17.30;76.00;;;;;;4951547;29;20805;-93
2021/03/25 13:29:57;;;;;;;12.87;6.93;;;17.30;75.50;;;;;;4922983;28;20581;-95